createdAt,value
2022-12-03T00:03:05.181Z,-2.03
2022-12-03T00:08:08.525Z,-2.26
2022-12-03T00:13:11.965Z,-1.40
2022-12-03T00:18:15.288Z,2.73
2022-12-03T00:23:18.586Z,5.03
2022-12-03T00:28:21.817Z,5.09
2022-12-03T00:33:25.112Z,2.57
2022-12-03T00:38:28.223Z,0.98
2022-12-03T00:43:31.520Z,-0.10
2022-12-03T00:48:35.140Z,-0.91
2022-12-03T00:53:38.965Z,-1.37
2022-12-03T00:58:42.077Z,-1.77
2022-12-03T01:03:45.200Z,-2.11
2022-12-03T01:08:48.383Z,-2.23
2022-12-03T01:13:51.501Z,-1.32
2022-12-03T01:18:54.801Z,2.92
2022-12-03T01:23:58.116Z,5.34
2022-12-03T01:29:01.428Z,6.68
2022-12-03T01:34:05.962Z,5.22
2022-12-03T01:39:09.319Z,2.46
2022-12-03T01:44:22.837Z,0.86
2022-12-03T01:49:43.148Z,-0.22
2022-12-03T01:54:52.006Z,-0.94
2022-12-03T01:59:59.118Z,-1.37
2022-12-03T02:05:15.318Z,-0.24
2022-12-03T02:10:26.791Z,3.81
2022-12-03T02:15:30.305Z,5.97
2022-12-03T02:21:12.439Z,5.72
2022-12-03T02:26:15.841Z,2.60
2022-12-03T02:31:19.082Z,0.81
2022-12-03T02:36:22.772Z,-0.27
2022-12-03T02:41:45.125Z,-0.94
2022-12-03T02:46:48.481Z,-0.41
2022-12-03T02:51:51.852Z,3.66
2022-12-03T02:56:55.266Z,5.74
2022-12-03T03:01:58.577Z,3.74
2022-12-03T03:07:01.685Z,1.39
2022-12-03T03:12:05.608Z,0.09
2022-12-03T03:17:08.917Z,-0.67
2022-12-03T03:22:12.553Z,0.22
2022-12-03T03:27:15.748Z,3.80
2022-12-03T03:32:18.961Z,5.94
2022-12-03T03:37:22.467Z,5.07
2022-12-03T03:42:25.986Z,2.33
2022-12-03T03:47:29.400Z,0.74
2022-12-03T03:52:33.345Z,-0.20
2022-12-03T03:57:37.077Z,-0.80
2022-12-03T04:02:41.852Z,0.74
2022-12-03T04:07:45.301Z,4.35
2022-12-03T04:12:57.636Z,6.06
2022-12-03T04:18:20.407Z,5.13
2022-12-03T04:23:29.260Z,2.39
2022-12-03T04:28:49.444Z,0.96
2022-12-03T04:34:12.207Z,-0.08
2022-12-03T04:39:15.444Z,-0.72
2022-12-03T04:44:33.777Z,-1.16
2022-12-03T04:49:44.130Z,-1.28
2022-12-03T04:54:47.368Z,2.21
2022-12-03T04:59:50.475Z,5.23
2022-12-03T05:04:53.867Z,5.70
2022-12-03T05:09:57.299Z,3.20
2022-12-03T05:15:00.615Z,1.60
2022-12-03T05:20:23.387Z,0.57
2022-12-03T05:25:26.711Z,-0.16
2022-12-03T05:30:30.404Z,-0.67
2022-12-03T05:35:33.724Z,-1.04
2022-12-03T05:40:36.832Z,-1.00
2022-12-03T05:45:43.006Z,2.72
2022-12-03T05:50:47.060Z,5.48
2022-12-03T05:55:50.239Z,6.62
2022-12-03T06:00:53.347Z,6.19
2022-12-03T06:05:56.478Z,3.58
2022-12-03T06:10:59.637Z,1.88
2022-12-03T06:16:02.841Z,0.65
2022-12-03T06:21:06.954Z,-0.18
2022-12-03T06:26:11.757Z,-0.73
2022-12-03T06:31:15.004Z,-1.13
2022-12-03T06:36:22.777Z,0.09
2022-12-03T06:41:26.702Z,4.07
2022-12-03T06:46:30.547Z,6.07
2022-12-03T06:51:33.723Z,6.28
2022-12-03T06:56:41.892Z,3.78
2022-12-03T07:01:48.186Z,1.75
2022-12-03T07:06:51.453Z,0.66
2022-12-03T07:11:54.554Z,-0.08
2022-12-03T07:16:57.763Z,-0.60
2022-12-03T07:22:01.373Z,-0.91
2022-12-03T07:27:04.591Z,-1.13
2022-12-03T07:32:07.787Z,-1.34
2022-12-03T07:37:11.005Z,-1.49
2022-12-03T07:42:14.211Z,-0.20
2022-12-03T07:47:18.338Z,3.90
2022-12-03T07:52:21.588Z,6.12
2022-12-03T07:57:24.760Z,6.14
2022-12-03T08:02:28.051Z,3.63
2022-12-03T08:07:31.652Z,2.12
2022-12-03T08:12:42.257Z,1.10
2022-12-03T08:17:51.726Z,0.30
2022-12-03T08:22:56.668Z,-0.26
2022-12-03T08:28:12.595Z,-0.67
2022-12-03T08:33:27.689Z,-0.42
2022-12-03T08:38:30.771Z,3.46
2022-12-03T08:43:42.325Z,6.06
2022-12-03T08:48:48.961Z,6.17
2022-12-03T08:54:02.098Z,3.68
2022-12-03T08:59:27.031Z,2.11
2022-12-03T09:04:46.444Z,1.03
2022-12-03T09:09:49.567Z,0.37
2022-12-03T09:14:53.044Z,-0.05
2022-12-03T09:19:56.654Z,-0.11
2022-12-03T09:25:00.078Z,3.39
2022-12-03T09:30:04.996Z,6.50
2022-12-03T09:35:09.291Z,6.39
2022-12-03T09:40:13.795Z,3.74
2022-12-03T09:45:18.029Z,2.06
2022-12-03T09:50:26.639Z,1.03
2022-12-03T09:55:30.992Z,0.35
2022-12-03T10:00:34.511Z,2.56
2022-12-03T10:05:37.814Z,5.67
2022-12-03T10:10:42.462Z,6.97
2022-12-03T10:15:46.181Z,6.55
2022-12-03T10:20:50.206Z,3.96
2022-12-03T10:25:58.512Z,2.29
2022-12-03T10:31:06.961Z,1.18
2022-12-03T10:36:21.128Z,0.42
2022-12-03T10:41:28.239Z,0.16
2022-12-03T10:46:31.381Z,3.57
2022-12-03T10:51:35.277Z,6.42
2022-12-03T10:56:38.362Z,6.71
2022-12-03T11:01:41.769Z,4.17
2022-12-03T11:06:45.292Z,2.55
2022-12-03T11:11:50.045Z,1.51
2022-12-03T11:16:53.262Z,0.77
2022-12-03T11:22:05.783Z,0.23
2022-12-03T11:27:11.957Z,-0.21
2022-12-03T11:32:43.438Z,-0.51
2022-12-03T11:37:46.744Z,-0.71
2022-12-03T11:42:50.469Z,0.51
2022-12-03T11:47:59.501Z,4.58
2022-12-03T11:53:19.403Z,6.78
2022-12-03T11:58:30.914Z,6.14
2022-12-03T12:03:43.313Z,3.36
2022-12-03T12:08:52.621Z,1.84
2022-12-03T12:14:01.284Z,0.85
2022-12-03T12:19:49.735Z,0.23
2022-12-03T12:25:01.708Z,-0.19
2022-12-03T12:30:18.167Z,-0.46
2022-12-03T12:35:27.266Z,-0.67
2022-12-03T12:40:34.222Z,0.71
2022-12-03T12:45:43.357Z,4.66
2022-12-03T12:50:52.331Z,6.84
2022-12-03T12:55:58.645Z,6.68
2022-12-03T13:01:11.464Z,4.04
2022-12-03T13:06:16.838Z,2.49
2022-12-03T13:11:35.481Z,1.61
2022-12-03T13:16:39.108Z,1.15
2022-12-03T13:21:45.681Z,0.84
2022-12-03T13:26:48.766Z,0.52
2022-12-03T13:32:01.816Z,0.29
2022-12-03T13:37:16.479Z,2.01
2022-12-03T13:42:46.587Z,5.73
2022-12-03T13:47:56.531Z,7.53
2022-12-03T13:53:40.193Z,6.77
2022-12-03T13:58:43.222Z,3.80
2022-12-03T14:03:46.406Z,2.32
2022-12-03T14:08:49.507Z,1.33
2022-12-03T14:13:52.502Z,0.60
2022-12-03T14:18:55.571Z,0.26
2022-12-03T14:23:58.673Z,3.17
2022-12-03T14:29:05.973Z,6.18
2022-12-03T14:34:11.696Z,7.53
2022-12-03T14:39:14.685Z,7.09
2022-12-03T14:44:17.792Z,4.37
2022-12-03T14:49:20.813Z,2.70
2022-12-03T14:54:24.034Z,1.68
2022-12-03T14:59:28.035Z,0.97
2022-12-03T15:04:31.283Z,0.42
2022-12-03T15:09:35.041Z,0.00
2022-12-03T15:14:38.295Z,-0.30
2022-12-03T15:19:41.671Z,-0.56
2022-12-03T15:24:44.713Z,0.48
2022-12-03T15:29:47.780Z,4.35
2022-12-03T15:34:53.866Z,6.65
2022-12-03T15:39:57.192Z,6.61
2022-12-03T15:45:00.480Z,4.03
2022-12-03T15:50:04.416Z,2.49
2022-12-03T15:55:08.318Z,1.49
2022-12-03T16:00:14.172Z,0.76
2022-12-03T16:05:17.415Z,0.27
2022-12-03T16:10:21.635Z,-0.06
2022-12-03T16:15:27.240Z,-0.30
2022-12-03T16:20:30.649Z,0.22
2022-12-03T16:25:34.016Z,4.07
2022-12-03T16:30:37.395Z,6.56
2022-12-03T16:35:40.557Z,6.69
2022-12-03T16:40:43.690Z,4.17
2022-12-03T16:46:03.089Z,2.59
2022-12-03T16:51:06.832Z,1.59
2022-12-03T16:56:09.981Z,0.94
2022-12-03T17:01:13.574Z,0.50
2022-12-03T17:06:17.473Z,0.16
2022-12-03T17:11:20.661Z,-0.07
2022-12-03T17:16:23.987Z,1.16
2022-12-03T17:21:29.763Z,4.94
2022-12-03T17:26:36.655Z,7.09
2022-12-03T17:31:42.182Z,7.05
2022-12-03T17:36:46.257Z,4.38
2022-12-03T17:41:49.579Z,2.74
2022-12-03T17:46:52.969Z,1.75
2022-12-03T17:51:56.360Z,1.10
2022-12-03T17:56:59.675Z,0.65
2022-12-03T18:02:03.111Z,0.31
2022-12-03T18:07:07.138Z,1.39
2022-12-03T18:12:10.382Z,5.26
2022-12-03T18:17:14.533Z,7.40
2022-12-03T18:22:18.119Z,7.36
2022-12-03T18:27:23.509Z,4.82
2022-12-03T18:32:29.909Z,3.24
2022-12-03T18:37:35.718Z,2.25
2022-12-03T18:42:42.094Z,1.54
2022-12-03T18:47:47.745Z,1.04
2022-12-03T18:52:54.031Z,0.70
2022-12-03T18:57:59.751Z,0.42
2022-12-03T19:03:05.097Z,1.69
2022-12-03T19:08:14.833Z,5.39
2022-12-03T19:13:20.796Z,6.93
2022-12-03T19:18:26.100Z,7.07
2022-12-03T19:23:31.592Z,4.56
2022-12-03T19:38:00.570Z,1.42
2022-12-03T19:43:03.974Z,0.91
2022-12-03T19:48:07.727Z,0.54
2022-12-03T19:53:11.015Z,1.33
2022-12-03T19:58:14.465Z,5.11
2022-12-03T20:03:17.631Z,7.41
2022-12-03T20:08:21.391Z,7.49
2022-12-03T20:13:24.774Z,5.00
2022-12-03T20:18:28.195Z,3.42
2022-12-03T20:23:31.597Z,2.40
2022-12-03T20:28:34.793Z,1.69
2022-12-03T20:33:40.471Z,1.17
2022-12-03T20:38:44.535Z,0.78
2022-12-03T20:43:48.625Z,0.52
2022-12-03T20:48:54.381Z,1.71
2022-12-03T20:54:00.953Z,5.67
2022-12-03T20:59:08.385Z,7.63
2022-12-03T21:04:18.272Z,7.52
2022-12-03T21:09:21.467Z,5.18
2022-12-03T21:14:25.117Z,3.75
2022-12-03T21:19:28.494Z,2.79
2022-12-03T21:24:32.416Z,2.05
2022-12-03T21:29:35.652Z,1.49
2022-12-03T21:34:39.352Z,1.09
2022-12-03T21:39:42.555Z,2.23
2022-12-03T21:44:45.841Z,6.09
2022-12-03T21:49:49.203Z,8.27
2022-12-03T21:54:53.847Z,8.20
2022-12-03T21:59:57.436Z,5.52
2022-12-03T22:05:01.160Z,3.83
2022-12-03T22:10:08.325Z,2.72
2022-12-03T22:15:16.764Z,1.92
2022-12-03T22:20:22.454Z,2.89
2022-12-03T22:25:25.870Z,6.64
2022-12-03T22:30:29.001Z,8.56
2022-12-03T22:35:32.178Z,8.44
2022-12-03T22:40:35.393Z,5.76
2022-12-03T22:45:38.700Z,4.03
2022-12-03T22:50:47.027Z,2.98
2022-12-03T22:56:00.374Z,2.23
2022-12-03T23:01:03.887Z,1.64
2022-12-03T23:06:11.371Z,2.57
2022-12-03T23:11:15.523Z,6.41
2022-12-03T23:16:27.535Z,8.47
2022-12-03T23:21:34.661Z,8.20
2022-12-03T23:26:39.619Z,5.58
2022-12-03T23:31:42.857Z,3.91
2022-12-03T23:36:46.112Z,2.85
2022-12-03T23:41:52.919Z,2.80
2022-12-03T23:46:56.104Z,6.25
2022-12-03T23:51:59.636Z,8.58
2022-12-03T23:57:03.482Z,8.57
